sensor_id;sensor_type;location;lat;lon;timestamp;temperature;humidity
11963;DHT22;62678;52.130;5.584;2023-08-24T00:01:10;17.70;99.90
11963;DHT22;62678;52.130;5.584;2023-08-24T00:03:40;17.80;99.90
11963;DHT22;62678;52.130;5.584;2023-08-24T00:06:07;17.80;99.90
11963;DHT22;62678;52.130;5.584;2023-08-24T00:08:34;17.70;99.90
11963;DHT22;62678;52.130;5.584;2023-08-24T00:11:03;17.70;99.90
11963;DHT22;62678;52.130;5.584;2023-08-24T00:13:31;17.60;99.90
11963;DHT22;62678;52.130;5.584;2023-08-24T00:15:58;17.60;99.90
11963;DHT22;62678;52.130;5.584;2023-08-24T00:18:25;17.60;99.90
11963;DHT22;62678;52.130;5.584;2023-08-24T00:20:54;17.50;99.90
11963;DHT22;62678;52.130;5.584;2023-08-24T00:23:21;17.60;99.90
11963;DHT22;62678;52.130;5.584;2023-08-24T00:25:49;17.60;99.90
11963;DHT22;62678;52.130;5.584;2023-08-24T00:28:16;17.60;99.90
11963;DHT22;62678;52.130;5.584;2023-08-24T00:30:43;17.50;99.90
11963;DHT22;62678;52.130;5.584;2023-08-24T00:33:11;17.50;99.90
11963;DHT22;62678;52.130;5.584;2023-08-24T00:35:38;17.50;99.90
11963;DHT22;62678;52.130;5.584;2023-08-24T00:38:06;17.50;99.90
11963;DHT22;62678;52.130;5.584;2023-08-24T00:40:34;17.50;99.90
11963;DHT22;62678;52.130;5.584;2023-08-24T00:43:01;17.50;99.90
11963;DHT22;62678;52.130;5.584;2023-08-24T00:45:30;17.60;99.90
11963;DHT22;62678;52.130;5.584;2023-08-24T00:47:58;17.70;99.90
11963;DHT22;62678;52.130;5.584;2023-08-24T00:50:26;17.60;99.90
11963;DHT22;62678;52.130;5.584;2023-08-24T00:52:53;17.60;99.90
11963;DHT22;62678;52.130;5.584;2023-08-24T00:55:22;17.60;99.90
11963;DHT22;62678;52.130;5.584;2023-08-24T00:57:50;17.60;99.90
11963;DHT22;62678;52.130;5.584;2023-08-24T01:00:18;17.60;99.90
11963;DHT22;62678;52.130;5.584;2023-08-24T01:02:45;17.60;99.90
11963;DHT22;62678;52.130;5.584;2023-08-24T01:05:12;17.60;99.90
11963;DHT22;62678;52.130;5.584;2023-08-24T01:07:39;17.70;99.90
11963;DHT22;62678;52.130;5.584;2023-08-24T01:10:08;17.70;99.90
11963;DHT22;62678;52.130;5.584;2023-08-24T01:12:46;17.70;99.90
11963;DHT22;62678;52.130;5.584;2023-08-24T01:15:18;17.70;99.90
11963;DHT22;62678;52.130;5.584;2023-08-24T01:17:46;17.70;99.90
11963;DHT22;62678;52.130;5.584;2023-08-24T01:20:15;17.60;99.90
11963;DHT22;62678;52.130;5.584;2023-08-24T01:22:47;17.60;99.90
11963;DHT22;62678;52.130;5.584;2023-08-24T01:25:24;17.70;99.90
11963;DHT22;62678;52.130;5.584;2023-08-24T01:28:00;17.60;99.90
11963;DHT22;62678;52.130;5.584;2023-08-24T01:30:28;17.50;99.90
11963;DHT22;62678;52.130;5.584;2023-08-24T01:32:56;17.50;99.90
11963;DHT22;62678;52.130;5.584;2023-08-24T01:35:23;17.50;99.90
11963;DHT22;62678;52.130;5.584;2023-08-24T01:37:51;17.50;99.90
11963;DHT22;62678;52.130;5.584;2023-08-24T01:40:28;17.50;99.90
11963;DHT22;62678;52.130;5.584;2023-08-24T01:43:03;17.50;99.90
11963;DHT22;62678;52.130;5.584;2023-08-24T01:45:32;17.50;99.90
11963;DHT22;62678;52.130;5.584;2023-08-24T01:48:02;17.50;99.90
11963;DHT22;62678;52.130;5.584;2023-08-24T01:50:30;17.50;99.90
11963;DHT22;62678;52.130;5.584;2023-08-24T01:52:58;17.50;99.90
11963;DHT22;62678;52.130;5.584;2023-08-24T01:55:25;17.50;99.90
11963;DHT22;62678;52.130;5.584;2023-08-24T01:57:55;17.50;99.90
11963;DHT22;62678;52.130;5.584;2023-08-24T02:00:24;17.60;99.90
11963;DHT22;62678;52.130;5.584;2023-08-24T02:02:51;17.60;99.90
11963;DHT22;62678;52.130;5.584;2023-08-24T02:05:18;17.60;99.90
11963;DHT22;62678;52.130;5.584;2023-08-24T02:07:45;17.60;99.90
11963;DHT22;62678;52.130;5.584;2023-08-24T02:10:12;17.70;99.90
11963;DHT22;62678;52.130;5.584;2023-08-24T02:12:39;17.70;99.90
11963;DHT22;62678;52.130;5.584;2023-08-24T02:15:07;17.70;99.90
11963;DHT22;62678;52.130;5.584;2023-08-24T02:17:36;17.70;99.90
11963;DHT22;62678;52.130;5.584;2023-08-24T02:20:04;17.80;99.90
11963;DHT22;62678;52.130;5.584;2023-08-24T02:22:34;17.80;99.90
11963;DHT22;62678;52.130;5.584;2023-08-24T02:25:01;17.90;99.90
11963;DHT22;62678;52.130;5.584;2023-08-24T02:27:30;17.90;99.90
11963;DHT22;62678;52.130;5.584;2023-08-24T02:29:57;17.90;99.90
11963;DHT22;62678;52.130;5.584;2023-08-24T02:32:24;17.90;99.90
11963;DHT22;62678;52.130;5.584;2023-08-24T02:34:54;17.90;99.90
11963;DHT22;62678;52.130;5.584;2023-08-24T02:37:22;18.00;99.90
11963;DHT22;62678;52.130;5.584;2023-08-24T02:39:49;17.90;99.90
11963;DHT22;62678;52.130;5.584;2023-08-24T02:42:17;17.90;99.90
11963;DHT22;62678;52.130;5.584;2023-08-24T02:44:44;17.90;99.90
11963;DHT22;62678;52.130;5.584;2023-08-24T02:47:11;17.90;99.90
11963;DHT22;62678;52.130;5.584;2023-08-24T02:49:38;17.90;99.90
11963;DHT22;62678;52.130;5.584;2023-08-24T02:52:06;18.00;99.90
11963;DHT22;62678;52.130;5.584;2023-08-24T02:54:34;18.10;99.90
11963;DHT22;62678;52.130;5.584;2023-08-24T02:57:02;17.90;99.90
11963;DHT22;62678;52.130;5.584;2023-08-24T02:59:29;18.00;99.90
11963;DHT22;62678;52.130;5.584;2023-08-24T03:01:56;18.00;99.90
11963;DHT22;62678;52.130;5.584;2023-08-24T03:04:24;17.90;99.90
11963;DHT22;62678;52.130;5.584;2023-08-24T03:06:51;17.90;99.90
11963;DHT22;62678;52.130;5.584;2023-08-24T03:09:20;17.90;99.90
11963;DHT22;62678;52.130;5.584;2023-08-24T03:11:47;17.90;99.90
11963;DHT22;62678;52.130;5.584;2023-08-24T03:14:14;18.00;99.90
11963;DHT22;62678;52.130;5.584;2023-08-24T03:16:41;18.10;99.90
11963;DHT22;62678;52.130;5.584;2023-08-24T03:19:08;18.00;99.90
11963;DHT22;62678;52.130;5.584;2023-08-24T03:21:36;18.00;99.90
11963;DHT22;62678;52.130;5.584;2023-08-24T03:24:04;18.00;99.90
11963;DHT22;62678;52.130;5.584;2023-08-24T03:26:33;17.90;99.90
11963;DHT22;62678;52.130;5.584;2023-08-24T03:29:00;17.80;99.90
11963;DHT22;62678;52.130;5.584;2023-08-24T03:31:27;17.80;99.90
11963;DHT22;62678;52.130;5.584;2023-08-24T03:33:54;17.80;99.90
11963;DHT22;62678;52.130;5.584;2023-08-24T03:36:22;17.70;99.90
11963;DHT22;62678;52.130;5.584;2023-08-24T03:38:49;17.70;99.90
11963;DHT22;62678;52.130;5.584;2023-08-24T03:41:16;17.60;99.90
11963;DHT22;62678;52.130;5.584;2023-08-24T03:43:44;17.60;99.90
11963;DHT22;62678;52.130;5.584;2023-08-24T03:46:11;17.60;99.90
11963;DHT22;62678;52.130;5.584;2023-08-24T03:48:37;17.50;99.90
11963;DHT22;62678;52.130;5.584;2023-08-24T03:51:04;17.60;99.90
11963;DHT22;62678;52.130;5.584;2023-08-24T03:53:31;17.50;99.90
11963;DHT22;62678;52.130;5.584;2023-08-24T03:55:59;17.50;99.90
11963;DHT22;62678;52.130;5.584;2023-08-24T03:58:26;17.50;99.90
11963;DHT22;62678;52.130;5.584;2023-08-24T04:00:54;17.50;99.90
11963;DHT22;62678;52.130;5.584;2023-08-24T04:03:21;17.50;99.90
11963;DHT22;62678;52.130;5.584;2023-08-24T04:05:48;17.50;99.90
11963;DHT22;62678;52.130;5.584;2023-08-24T04:08:15;17.50;99.90
11963;DHT22;62678;52.130;5.584;2023-08-24T04:10:43;17.60;99.90
11963;DHT22;62678;52.130;5.584;2023-08-24T04:13:10;17.50;99.90
11963;DHT22;62678;52.130;5.584;2023-08-24T04:15:37;17.50;99.90
11963;DHT22;62678;52.130;5.584;2023-08-24T04:18:06;17.40;99.90
11963;DHT22;62678;52.130;5.584;2023-08-24T04:20:33;17.40;99.90
11963;DHT22;62678;52.130;5.584;2023-08-24T04:23:02;17.40;99.90
11963;DHT22;62678;52.130;5.584;2023-08-24T04:25:29;17.40;99.90
11963;DHT22;62678;52.130;5.584;2023-08-24T04:27:56;17.40;99.90
11963;DHT22;62678;52.130;5.584;2023-08-24T04:30:23;17.40;99.90
11963;DHT22;62678;52.130;5.584;2023-08-24T04:32:50;17.30;99.90
11963;DHT22;62678;52.130;5.584;2023-08-24T04:35:19;17.30;99.90
11963;DHT22;62678;52.130;5.584;2023-08-24T04:37:46;17.30;99.90
11963;DHT22;62678;52.130;5.584;2023-08-24T04:40:14;17.30;99.90
11963;DHT22;62678;52.130;5.584;2023-08-24T04:42:41;17.30;99.90
11963;DHT22;62678;52.130;5.584;2023-08-24T04:45:09;17.30;99.90
11963;DHT22;62678;52.130;5.584;2023-08-24T04:47:36;17.30;99.90
11963;DHT22;62678;52.130;5.584;2023-08-24T04:50:04;17.30;99.90
11963;DHT22;62678;52.130;5.584;2023-08-24T04:52:33;17.30;99.90
11963;DHT22;62678;52.130;5.584;2023-08-24T04:55:00;17.30;99.90
11963;DHT22;62678;52.130;5.584;2023-08-24T04:57:28;17.30;99.90
11963;DHT22;62678;52.130;5.584;2023-08-24T04:59:55;17.30;99.90
11963;DHT22;62678;52.130;5.584;2023-08-24T05:02:22;17.30;99.90
11963;DHT22;62678;52.130;5.584;2023-08-24T05:04:50;17.40;99.90
11963;DHT22;62678;52.130;5.584;2023-08-24T05:07:17;17.40;99.90
11963;DHT22;62678;52.130;5.584;2023-08-24T05:09:46;17.40;99.90
11963;DHT22;62678;52.130;5.584;2023-08-24T05:12:13;17.40;99.90
11963;DHT22;62678;52.130;5.584;2023-08-24T05:14:40;17.50;99.90
11963;DHT22;62678;52.130;5.584;2023-08-24T05:17:07;17.60;99.90
11963;DHT22;62678;52.130;5.584;2023-08-24T05:19:34;17.60;99.90
11963;DHT22;62678;52.130;5.584;2023-08-24T05:22:02;17.60;99.90
11963;DHT22;62678;52.130;5.584;2023-08-24T05:24:29;17.60;99.90
11963;DHT22;62678;52.130;5.584;2023-08-24T05:26:58;17.70;99.90
11963;DHT22;62678;52.130;5.584;2023-08-24T05:29:25;17.80;99.90
11963;DHT22;62678;52.130;5.584;2023-08-24T05:31:52;17.80;99.90
11963;DHT22;62678;52.130;5.584;2023-08-24T05:34:19;17.90;99.90
11963;DHT22;62678;52.130;5.584;2023-08-24T05:36:46;17.80;99.90
11963;DHT22;62678;52.130;5.584;2023-08-24T05:39:13;17.80;99.90
11963;DHT22;62678;52.130;5.584;2023-08-24T05:41:40;17.90;99.90
11963;DHT22;62678;52.130;5.584;2023-08-24T05:44:09;17.90;99.90
11963;DHT22;62678;52.130;5.584;2023-08-24T05:46:36;17.90;99.90
11963;DHT22;62678;52.130;5.584;2023-08-24T05:49:03;18.00;99.90
11963;DHT22;62678;52.130;5.584;2023-08-24T05:51:30;18.10;99.90
11963;DHT22;62678;52.130;5.584;2023-08-24T05:53:57;18.10;99.90
11963;DHT22;62678;52.130;5.584;2023-08-24T05:56:24;18.30;99.90
11963;DHT22;62678;52.130;5.584;2023-08-24T05:58:51;18.30;99.90
11963;DHT22;62678;52.130;5.584;2023-08-24T06:01:20;18.30;99.90
11963;DHT22;62678;52.130;5.584;2023-08-24T06:03:47;18.40;99.90
11963;DHT22;62678;52.130;5.584;2023-08-24T06:06:15;18.40;99.90
11963;DHT22;62678;52.130;5.584;2023-08-24T06:08:43;18.50;99.90
11963;DHT22;62678;52.130;5.584;2023-08-24T06:11:10;18.50;99.90
11963;DHT22;62678;52.130;5.584;2023-08-24T06:13:37;18.60;99.90
11963;DHT22;62678;52.130;5.584;2023-08-24T06:16:04;18.60;99.90
11963;DHT22;62678;52.130;5.584;2023-08-24T06:18:33;18.60;99.90
11963;DHT22;62678;52.130;5.584;2023-08-24T06:21:00;18.70;99.90
11963;DHT22;62678;52.130;5.584;2023-08-24T06:23:27;18.80;99.90
11963;DHT22;62678;52.130;5.584;2023-08-24T06:25:54;18.80;99.90
11963;DHT22;62678;52.130;5.584;2023-08-24T06:28:21;18.90;99.90
11963;DHT22;62678;52.130;5.584;2023-08-24T06:30:49;19.10;99.90
11963;DHT22;62678;52.130;5.584;2023-08-24T06:33:17;19.20;99.90
11963;DHT22;62678;52.130;5.584;2023-08-24T06:35:46;19.30;99.90
11963;DHT22;62678;52.130;5.584;2023-08-24T06:38:13;19.40;99.90
11963;DHT22;62678;52.130;5.584;2023-08-24T06:40:41;19.50;99.90
11963;DHT22;62678;52.130;5.584;2023-08-24T06:43:08;19.60;99.90
11963;DHT22;62678;52.130;5.584;2023-08-24T06:45:35;19.70;99.90
11963;DHT22;62678;52.130;5.584;2023-08-24T06:48:03;19.70;99.90
11963;DHT22;62678;52.130;5.584;2023-08-24T06:50:32;19.70;99.90
11963;DHT22;62678;52.130;5.584;2023-08-24T06:53:01;19.80;99.90
11963;DHT22;62678;52.130;5.584;2023-08-24T06:55:29;19.80;99.90
11963;DHT22;62678;52.130;5.584;2023-08-24T06:57:57;19.90;99.90
11963;DHT22;62678;52.130;5.584;2023-08-24T07:00:24;20.00;99.90
11963;DHT22;62678;52.130;5.584;2023-08-24T07:02:51;20.20;99.90
11963;DHT22;62678;52.130;5.584;2023-08-24T07:05:18;20.30;99.90
11963;DHT22;62678;52.130;5.584;2023-08-24T07:07:45;20.30;99.90
11963;DHT22;62678;52.130;5.584;2023-08-24T07:10:15;20.30;99.90
11963;DHT22;62678;52.130;5.584;2023-08-24T07:12:42;20.40;99.90
11963;DHT22;62678;52.130;5.584;2023-08-24T07:15:10;20.60;99.90
11963;DHT22;62678;52.130;5.584;2023-08-24T07:17:38;20.60;99.90
11963;DHT22;62678;52.130;5.584;2023-08-24T07:20:06;20.70;99.90
11963;DHT22;62678;52.130;5.584;2023-08-24T07:22:34;20.80;99.90
11963;DHT22;62678;52.130;5.584;2023-08-24T07:25:02;20.80;99.90
11963;DHT22;62678;52.130;5.584;2023-08-24T07:27:32;21.00;99.90
11963;DHT22;62678;52.130;5.584;2023-08-24T07:30:00;21.10;99.90
11963;DHT22;62678;52.130;5.584;2023-08-24T07:32:29;21.10;99.90
11963;DHT22;62678;52.130;5.584;2023-08-24T07:34:56;21.10;99.90
11963;DHT22;62678;52.130;5.584;2023-08-24T07:37:25;21.30;99.90
11963;DHT22;62678;52.130;5.584;2023-08-24T07:39:52;21.50;99.90
11963;DHT22;62678;52.130;5.584;2023-08-24T07:42:20;21.50;99.90
11963;DHT22;62678;52.130;5.584;2023-08-24T07:44:49;21.60;99.90
11963;DHT22;62678;52.130;5.584;2023-08-24T07:47:16;21.70;99.90
11963;DHT22;62678;52.130;5.584;2023-08-24T07:49:43;21.90;99.90
11963;DHT22;62678;52.130;5.584;2023-08-24T07:52:13;22.10;99.90
11963;DHT22;62678;52.130;5.584;2023-08-24T07:54:40;22.20;99.90
11963;DHT22;62678;52.130;5.584;2023-08-24T07:57:08;22.30;99.90
11963;DHT22;62678;52.130;5.584;2023-08-24T07:59:35;22.40;99.90
11963;DHT22;62678;52.130;5.584;2023-08-24T08:02:03;22.60;99.90
11963;DHT22;62678;52.130;5.584;2023-08-24T08:04:31;22.60;99.90
11963;DHT22;62678;52.130;5.584;2023-08-24T08:06:58;22.70;99.90
11963;DHT22;62678;52.130;5.584;2023-08-24T08:09:25;22.80;99.90
11963;DHT22;62678;52.130;5.584;2023-08-24T08:11:52;23.10;99.90
11963;DHT22;62678;52.130;5.584;2023-08-24T08:14:19;23.20;99.90
11963;DHT22;62678;52.130;5.584;2023-08-24T08:16:47;23.40;99.90
11963;DHT22;62678;52.130;5.584;2023-08-24T08:19:15;23.60;99.90
11963;DHT22;62678;52.130;5.584;2023-08-24T08:21:44;23.80;99.90
11963;DHT22;62678;52.130;5.584;2023-08-24T08:24:12;23.90;99.90
11963;DHT22;62678;52.130;5.584;2023-08-24T08:26:39;24.20;99.90
11963;DHT22;62678;52.130;5.584;2023-08-24T08:29:06;24.40;99.90
11963;DHT22;62678;52.130;5.584;2023-08-24T08:31:33;24.50;99.90
11963;DHT22;62678;52.130;5.584;2023-08-24T08:34:01;24.70;99.90
11963;DHT22;62678;52.130;5.584;2023-08-24T08:36:31;24.80;99.90
11963;DHT22;62678;52.130;5.584;2023-08-24T08:38:59;24.90;99.90
11963;DHT22;62678;52.130;5.584;2023-08-24T08:41:29;24.90;99.90
11963;DHT22;62678;52.130;5.584;2023-08-24T08:43:58;25.00;99.90
11963;DHT22;62678;52.130;5.584;2023-08-24T08:46:27;25.00;99.90
11963;DHT22;62678;52.130;5.584;2023-08-24T08:48:55;25.20;99.90
11963;DHT22;62678;52.130;5.584;2023-08-24T08:51:23;25.30;99.90
11963;DHT22;62678;52.130;5.584;2023-08-24T08:53:52;25.50;90.50
11963;DHT22;62678;52.130;5.584;2023-08-24T08:56:19;25.70;85.50
11963;DHT22;62678;52.130;5.584;2023-08-24T08:58:47;25.80;85.20
11963;DHT22;62678;52.130;5.584;2023-08-24T09:01:15;25.90;74.20
11963;DHT22;62678;52.130;5.584;2023-08-24T09:03:43;25.80;76.10
11963;DHT22;62678;52.130;5.584;2023-08-24T09:06:11;25.70;88.90
11963;DHT22;62678;52.130;5.584;2023-08-24T09:08:38;25.80;84.30
11963;DHT22;62678;52.130;5.584;2023-08-24T09:11:07;26.00;71.00
11963;DHT22;62678;52.130;5.584;2023-08-24T09:13:35;26.20;63.10
11963;DHT22;62678;52.130;5.584;2023-08-24T09:16:06;26.30;60.20
11963;DHT22;62678;52.130;5.584;2023-08-24T09:18:35;26.50;48.00
11963;DHT22;62678;52.130;5.584;2023-08-24T09:21:08;26.50;51.70
11963;DHT22;62678;52.130;5.584;2023-08-24T09:23:37;26.70;50.70
11963;DHT22;62678;52.130;5.584;2023-08-24T09:26:04;26.80;44.30
11963;DHT22;62678;52.130;5.584;2023-08-24T09:28:33;27.00;37.60
11963;DHT22;62678;52.130;5.584;2023-08-24T09:31:01;27.30;30.90
11963;DHT22;62678;52.130;5.584;2023-08-24T09:33:29;27.30;29.30
11963;DHT22;62678;52.130;5.584;2023-08-24T09:35:56;27.50;27.50
11963;DHT22;62678;52.130;5.584;2023-08-24T09:38:27;27.50;26.50
11963;DHT22;62678;52.130;5.584;2023-08-24T09:40:56;27.70;22.10
11963;DHT22;62678;52.130;5.584;2023-08-24T09:43:23;27.80;17.30
11963;DHT22;62678;52.130;5.584;2023-08-24T09:45:53;27.70;16.80
11963;DHT22;62678;52.130;5.584;2023-08-24T09:48:21;27.70;17.40
11963;DHT22;62678;52.130;5.584;2023-08-24T09:50:50;27.80;18.70
11963;DHT22;62678;52.130;5.584;2023-08-24T09:53:19;27.90;18.40
11963;DHT22;62678;52.130;5.584;2023-08-24T09:55:53;28.10;15.20
11963;DHT22;62678;52.130;5.584;2023-08-24T09:58:22;28.20;13.70
11963;DHT22;62678;52.130;5.584;2023-08-24T10:00:50;28.40;14.10
11963;DHT22;62678;52.130;5.584;2023-08-24T10:03:20;28.40;14.90
11963;DHT22;62678;52.130;5.584;2023-08-24T10:05:51;28.50;12.00
11963;DHT22;62678;52.130;5.584;2023-08-24T10:08:21;28.40;13.60
11963;DHT22;62678;52.130;5.584;2023-08-24T10:10:53;28.60;11.50
11963;DHT22;62678;52.130;5.584;2023-08-24T10:13:25;28.60;12.40
11963;DHT22;62678;52.130;5.584;2023-08-24T10:15:54;28.70;10.50
11963;DHT22;62678;52.130;5.584;2023-08-24T10:18:25;28.60;8.70
11963;DHT22;62678;52.130;5.584;2023-08-24T10:20:53;28.40;10.30
11963;DHT22;62678;52.130;5.584;2023-08-24T10:23:21;28.00;14.20
11963;DHT22;62678;52.130;5.584;2023-08-24T10:25:51;27.60;22.30
11963;DHT22;62678;52.130;5.584;2023-08-24T10:28:18;27.40;23.80
11963;DHT22;62678;52.130;5.584;2023-08-24T10:30:47;27.30;24.40
11963;DHT22;62678;52.130;5.584;2023-08-24T10:33:15;27.10;32.30
11963;DHT22;62678;52.130;5.584;2023-08-24T10:35:44;27.00;43.00
11963;DHT22;62678;52.130;5.584;2023-08-24T10:38:23;26.60;70.50
11963;DHT22;62678;52.130;5.584;2023-08-24T10:40:51;26.80;59.40
11963;DHT22;62678;52.130;5.584;2023-08-24T10:43:18;26.60;73.50
11963;DHT22;62678;52.130;5.584;2023-08-24T10:45:56;26.50;75.40
11963;DHT22;62678;52.130;5.584;2023-08-24T10:48:24;26.30;94.20
11963;DHT22;62678;52.130;5.584;2023-08-24T10:51:19;26.20;99.90
11963;DHT22;62678;52.130;5.584;2023-08-24T10:53:51;26.20;99.90
11963;DHT22;62678;52.130;5.584;2023-08-24T10:56:19;26.20;99.90
11963;DHT22;62678;52.130;5.584;2023-08-24T10:58:48;26.20;99.90
11963;DHT22;62678;52.130;5.584;2023-08-24T11:01:35;26.20;99.90
11963;DHT22;62678;52.130;5.584;2023-08-24T11:04:05;26.20;99.90
11963;DHT22;62678;52.130;5.584;2023-08-24T11:06:50;26.20;99.90
11963;DHT22;62678;52.130;5.584;2023-08-24T11:09:17;26.20;99.90
11963;DHT22;62678;52.130;5.584;2023-08-24T11:11:55;26.10;99.90
11963;DHT22;62678;52.130;5.584;2023-08-24T11:14:23;26.20;99.90
11963;DHT22;62678;52.130;5.584;2023-08-24T11:16:52;26.20;99.90
11963;DHT22;62678;52.130;5.584;2023-08-24T11:19:21;26.20;99.90
11963;DHT22;62678;52.130;5.584;2023-08-24T11:21:51;26.30;99.90
11963;DHT22;62678;52.130;5.584;2023-08-24T11:24:18;26.20;99.90
11963;DHT22;62678;52.130;5.584;2023-08-24T11:26:47;26.10;99.90
11963;DHT22;62678;52.130;5.584;2023-08-24T11:29:14;26.30;99.90
11963;DHT22;62678;52.130;5.584;2023-08-24T11:31:43;26.40;99.90
11963;DHT22;62678;52.130;5.584;2023-08-24T11:34:15;26.50;99.90
11963;DHT22;62678;52.130;5.584;2023-08-24T11:36:42;26.70;99.90
11963;DHT22;62678;52.130;5.584;2023-08-24T11:39:16;26.90;99.90
11963;DHT22;62678;52.130;5.584;2023-08-24T11:41:55;27.00;99.90
11963;DHT22;62678;52.130;5.584;2023-08-24T11:44:23;27.20;99.90
11963;DHT22;62678;52.130;5.584;2023-08-24T11:46:50;27.10;99.90
11963;DHT22;62678;52.130;5.584;2023-08-24T11:49:17;27.30;99.90
11963;DHT22;62678;52.130;5.584;2023-08-24T11:51:44;27.30;93.50
11963;DHT22;62678;52.130;5.584;2023-08-24T11:54:11;27.60;84.50
11963;DHT22;62678;52.130;5.584;2023-08-24T11:56:42;27.40;87.90
11963;DHT22;62678;52.130;5.584;2023-08-24T11:59:12;27.50;79.60
11963;DHT22;62678;52.130;5.584;2023-08-24T12:01:41;27.60;81.90
11963;DHT22;62678;52.130;5.584;2023-08-24T12:04:08;27.60;80.30
11963;DHT22;62678;52.130;5.584;2023-08-24T12:06:36;27.90;59.60
11963;DHT22;62678;52.130;5.584;2023-08-24T12:09:05;28.10;56.00
11963;DHT22;62678;52.130;5.584;2023-08-24T12:11:36;28.10;47.70
11963;DHT22;62678;52.130;5.584;2023-08-24T12:14:06;28.10;50.70
11963;DHT22;62678;52.130;5.584;2023-08-24T12:16:35;28.30;47.20
11963;DHT22;62678;52.130;5.584;2023-08-24T12:19:06;28.50;46.10
11963;DHT22;62678;52.130;5.584;2023-08-24T12:21:34;28.60;42.50
11963;DHT22;62678;52.130;5.584;2023-08-24T12:24:02;28.70;40.40
11963;DHT22;62678;52.130;5.584;2023-08-24T12:26:31;28.90;36.60
11963;DHT22;62678;52.130;5.584;2023-08-24T12:29:02;28.70;35.00
11963;DHT22;62678;52.130;5.584;2023-08-24T12:31:36;28.80;34.40
11963;DHT22;62678;52.130;5.584;2023-08-24T12:34:04;28.60;33.00
11963;DHT22;62678;52.130;5.584;2023-08-24T12:36:32;28.80;29.60
11963;DHT22;62678;52.130;5.584;2023-08-24T12:39:00;28.90;27.00
11963;DHT22;62678;52.130;5.584;2023-08-24T12:41:29;29.10;27.10
11963;DHT22;62678;52.130;5.584;2023-08-24T12:43:57;29.20;25.30
11963;DHT22;62678;52.130;5.584;2023-08-24T12:46:24;29.10;24.90
11963;DHT22;62678;52.130;5.584;2023-08-24T12:48:54;29.30;23.90
11963;DHT22;62678;52.130;5.584;2023-08-24T12:51:22;29.30;20.90
11963;DHT22;62678;52.130;5.584;2023-08-24T12:53:49;29.50;17.60
11963;DHT22;62678;52.130;5.584;2023-08-24T12:56:17;29.50;16.20
11963;DHT22;62678;52.130;5.584;2023-08-24T12:58:44;29.30;17.20
11963;DHT22;62678;52.130;5.584;2023-08-24T13:01:11;29.10;17.10
11963;DHT22;62678;52.130;5.584;2023-08-24T13:03:38;29.20;17.10
11963;DHT22;62678;52.130;5.584;2023-08-24T13:06:07;28.70;19.30
11963;DHT22;62678;52.130;5.584;2023-08-24T13:08:34;28.50;19.60
11963;DHT22;62678;52.130;5.584;2023-08-24T13:11:01;28.40;20.70
11963;DHT22;62678;52.130;5.584;2023-08-24T13:13:28;28.50;23.10
11963;DHT22;62678;52.130;5.584;2023-08-24T13:15:55;28.70;22.50
11963;DHT22;62678;52.130;5.584;2023-08-24T13:18:22;28.80;19.90
11963;DHT22;62678;52.130;5.584;2023-08-24T13:20:50;28.80;19.70
11963;DHT22;62678;52.130;5.584;2023-08-24T13:23:18;28.90;19.20
11963;DHT22;62678;52.130;5.584;2023-08-24T13:25:45;29.00;18.80
11963;DHT22;62678;52.130;5.584;2023-08-24T13:28:12;29.20;17.50
11963;DHT22;62678;52.130;5.584;2023-08-24T13:30:39;29.40;16.80
11963;DHT22;62678;52.130;5.584;2023-08-24T13:33:08;29.50;15.50
11963;DHT22;62678;52.130;5.584;2023-08-24T13:35:35;29.60;14.90
11963;DHT22;62678;52.130;5.584;2023-08-24T13:38:02;29.80;12.10
11963;DHT22;62678;52.130;5.584;2023-08-24T13:40:31;29.70;10.90
11963;DHT22;62678;52.130;5.584;2023-08-24T13:42:58;29.40;14.40
11963;DHT22;62678;52.130;5.584;2023-08-24T13:45:25;29.00;17.10
11963;DHT22;62678;52.130;5.584;2023-08-24T13:47:55;29.30;15.90
11963;DHT22;62678;52.130;5.584;2023-08-24T13:50:22;29.60;14.40
11963;DHT22;62678;52.130;5.584;2023-08-24T13:52:49;29.40;13.00
11963;DHT22;62678;52.130;5.584;2023-08-24T13:55:16;29.40;15.10
11963;DHT22;62678;52.130;5.584;2023-08-24T13:57:44;29.60;13.90
11963;DHT22;62678;52.130;5.584;2023-08-24T14:00:12;29.40;14.90
11963;DHT22;62678;52.130;5.584;2023-08-24T14:02:40;29.50;14.60
11963;DHT22;62678;52.130;5.584;2023-08-24T14:05:08;29.30;15.80
11963;DHT22;62678;52.130;5.584;2023-08-24T14:07:36;28.90;17.90
11963;DHT22;62678;52.130;5.584;2023-08-24T14:10:04;28.90;19.10
11963;DHT22;62678;52.130;5.584;2023-08-24T14:12:32;28.80;21.40
11963;DHT22;62678;52.130;5.584;2023-08-24T14:15:00;28.60;24.20
11963;DHT22;62678;52.130;5.584;2023-08-24T14:17:27;28.20;25.30
11963;DHT22;62678;52.130;5.584;2023-08-24T14:19:55;28.20;28.20
11963;DHT22;62678;52.130;5.584;2023-08-24T14:22:22;28.10;27.10
11963;DHT22;62678;52.130;5.584;2023-08-24T14:24:49;27.80;99.90
11963;DHT22;62678;52.130;5.584;2023-08-24T14:27:16;27.70;99.90
11963;DHT22;62678;52.130;5.584;2023-08-24T14:29:43;27.60;99.90
11963;DHT22;62678;52.130;5.584;2023-08-24T14:32:11;27.60;99.90
11963;DHT22;62678;52.130;5.584;2023-08-24T14:34:38;27.50;99.90
11963;DHT22;62678;52.130;5.584;2023-08-24T14:37:05;27.50;99.90
11963;DHT22;62678;52.130;5.584;2023-08-24T14:39:32;27.50;99.90
11963;DHT22;62678;52.130;5.584;2023-08-24T14:41:59;27.30;99.90
11963;DHT22;62678;52.130;5.584;2023-08-24T14:44:28;27.30;99.90
11963;DHT22;62678;52.130;5.584;2023-08-24T14:46:55;27.10;99.90
11963;DHT22;62678;52.130;5.584;2023-08-24T14:49:23;27.10;86.10
11963;DHT22;62678;52.130;5.584;2023-08-24T14:51:50;27.00;95.00
11963;DHT22;62678;52.130;5.584;2023-08-24T14:54:17;27.20;91.10
11963;DHT22;62678;52.130;5.584;2023-08-24T14:56:44;26.80;99.90
11963;DHT22;62678;52.130;5.584;2023-08-24T14:59:11;26.60;99.90
11963;DHT22;62678;52.130;5.584;2023-08-24T15:01:38;26.40;99.90
11963;DHT22;62678;52.130;5.584;2023-08-24T15:04:05;26.30;99.90
11963;DHT22;62678;52.130;5.584;2023-08-24T15:06:34;26.10;99.90
11963;DHT22;62678;52.130;5.584;2023-08-24T15:09:01;26.00;99.90
11963;DHT22;62678;52.130;5.584;2023-08-24T15:11:29;25.80;99.90
11963;DHT22;62678;52.130;5.584;2023-08-24T15:13:56;25.70;99.90
11963;DHT22;62678;52.130;5.584;2023-08-24T15:16:23;25.90;99.90
11963;DHT22;62678;52.130;5.584;2023-08-24T15:18:50;25.90;99.90
11963;DHT22;62678;52.130;5.584;2023-08-24T15:21:19;25.90;99.90
11963;DHT22;62678;52.130;5.584;2023-08-24T15:23:48;25.80;99.90
11963;DHT22;62678;52.130;5.584;2023-08-24T15:26:15;25.90;99.90
11963;DHT22;62678;52.130;5.584;2023-08-24T15:29:11;25.90;99.90
11963;DHT22;62678;52.130;5.584;2023-08-24T15:31:38;26.10;99.90
11963;DHT22;62678;52.130;5.584;2023-08-24T15:34:05;26.10;99.90
11963;DHT22;62678;52.130;5.584;2023-08-24T15:36:32;26.10;99.90